Flight Track Log - Related Links

Times and Time Zones

All times are in EDT time to prevent confusion due to time zone crossing. See the UPS916 flight status page for this flight to view local times or setup timezone preferences in your user account.

Time Position Orientation Groundspeed Altitude Reporting Facility
EDT Latitude Longitude Course Direction KTS MPH feet Rate Location/Type
Sat 04:39:32 AM 38.1640 -85.7410 142° Southeast 166 191 800  Level FlightAware ADS-B
Sat 04:39:57 AM 38.1470 -85.7400 177° South 159 183 2,100 2,400 Climbing FlightAware ADS-B
Sat 04:40:27 AM 38.1220 -85.7480 194° South 204 235 3,000 2,100 Climbing FlightAware ADS-B
Sat 04:40:57 AM 38.0920 -85.7560 192° South 230 265 4,200 2,267 Climbing FlightAware ADS-B
Sat 04:41:12 AM 38.0750 -85.7640 200° South 251 289 4,700 2,160 Climbing FlightAware ADS-B
Sat 04:41:22 AM 38.0680 -85.7730 225° Southwest 259 298 5,100 2,640 Climbing FlightAware ADS-B
Sat 04:41:37 AM 38.0600 -85.7950 245° Southwest 271 312 5,800 2,933 Climbing FlightAware ADS-B
Sat 04:42:07 AM 38.0570 -85.8450 266° West 280 322 7,300 2,945 Climbing FlightAware ADS-B
Sat 04:42:32 AM 38.0550 -85.8880 267° West 285 328 8,500 2,727 Climbing FlightAware ADS-B
Sat 04:43:02 AM 38.0520 -85.9390 266° West 290 334 9,800 2,143 Climbing FlightAware ADS-B
Sat 04:43:42 AM 38.0480 -86.0090 266° West 324 373 11,000 1,765 Climbing FlightAware ADS-B
Sat 04:44:27 AM 38.0420 -86.1010 265° West 376 433 12,300 2,188 Climbing FlightAware ADS-B
Sat 04:45:07 AM 38.0340 -86.1890 263° West 399 459 14,100 2,894 Climbing FlightAware ADS-B
Sat 04:45:52 AM 38.0240 -86.3020 264° West 417 480 16,400 2,925 Climbing FlightAware ADS-B
Sat 04:46:27 AM 38.0170 -86.3850 264° West 431 496 18,000 2,800 Climbing FlightAware ADS-B
Sat 04:47:07 AM 38.0070 -86.4890 263° West 443 510 19,900 2,800 Climbing FlightAware ADS-B
Sat 04:47:57 AM 37.9960 -86.6220 264° West 454 522 22,200 2,653 Climbing FlightAware ADS-B
Sat 04:48:42 AM 37.9850 -86.7410 263° West 462 532 24,100 2,329 Climbing FlightAware ADS-B
Sat 04:49:22 AM 37.9750 -86.8490 263° West 474 545 25,500 2,175 Climbing FlightAware ADS-B
Sat 04:50:02 AM 37.9650 -86.9610 264° West 480 552 27,000 2,400 Climbing FlightAware ADS-B
Sat 04:50:47 AM 37.9530 -87.0850 263° West 476 548 28,900 2,560 Climbing FlightAware ADS-B
Sat 04:51:17 AM 37.9450 -87.1710 263° West 473 544 30,200 2,400 Climbing FlightAware ADS-B
Sat 04:51:47 AM 37.9380 -87.2500 264° West 470 541 31,300 2,175 Climbing FlightAware ADS-B
Sat 04:52:37 AM 37.9240 -87.3890 263° West 465 535 33,100 1,867 Climbing FlightAware ADS-B
Sat 04:53:17 AM 37.9150 -87.4920 264° West 463 533 34,100 706 Climbing FlightAware ADS-B
Sat 04:54:02 AM 37.9020 -87.6160 262° West 461 531 34,100  Level FlightAware ADS-B
Sat 04:54:42 AM 37.8920 -87.7250 263° West 463 533 34,100  Level FlightAware ADS-B
Sat 04:55:22 AM 37.8810 -87.8300 262° West 464 534 34,100  Level FlightAware ADS-B
Sat 04:56:07 AM 37.8690 -87.9540 263° West 465 535 34,100  Level FlightAware ADS-B
Sat 04:56:47 AM 37.8580 -88.0630 263° West 466 536 34,100  Level FlightAware ADS-B
Sat 04:57:32 AM 37.8450 -88.1840 262° West 465 535 34,100  Level FlightAware ADS-B
Sat 04:58:12 AM 37.8340 -88.2900 263° West 466 536 34,100  Level FlightAware ADS-B
Sat 04:58:57 AM 37.8220 -88.4110 263° West 466 536 34,100  Level FlightAware ADS-B
Sat 04:59:37 AM 37.8100 -88.5220 262° West 465 535 34,100  Level FlightAware ADS-B
Sat 05:00:17 AM 37.7980 -88.6310 262° West 464 534 34,100  Level FlightAware ADS-B
Sat 05:01:02 AM 37.7860 -88.7480 263° West 465 535 34,100  Level FlightAware ADS-B
Sat 05:01:32 AM 37.7770 -88.8300 262° West 465 535 34,100  Level FlightAware ADS-B
Sat 05:02:27 AM 37.7620 -88.9610 262° West 465 535 34,100  Level FlightAware ADS-B
Sat 05:02:57 AM 37.7520 -89.0550 262° West 463 533 34,100  Level FlightAware ADS-B
Sat 05:03:52 AM 37.7380 -89.1850 262° West 463 533 34,100  Level FlightAware ADS-B
Sat 05:04:32 AM 37.7280 -89.2760 262° West 463 533 34,100  Level FlightAware ADS-B
Sat 05:05:12 AM 37.7170 -89.3670 261° West 463 533 34,100  Level FlightAware ADS-B
Sat 05:05:52 AM 37.7070 -89.4590 262° West 463 533 34,100  Level FlightAware ADS-B
Sat 05:06:32 AM 37.6970 -89.5500 262° West 463 533 34,100  Level FlightAware ADS-B
Sat 05:07:12 AM 37.6870 -89.6410 262° West 463 533 34,100  Level FlightAware ADS-B
Sat 05:08:02 AM 37.6740 -89.7550 262° West 463 533 34,100  Level FlightAware ADS-B
Sat 05:08:42 AM 37.6640 -89.8460 262° West 463 533 34,100  Level FlightAware ADS-B
Sat 05:09:22 AM 37.6540 -89.9370 262° West 463 533 34,100  Level FlightAware ADS-B
Sat 05:10:02 AM 37.6440 -90.0280 262° West 463 533 34,100  Level FlightAware ADS-B
Sat 05:10:52 AM 37.6310 -90.1420 262° West 463 533 34,100  Level FlightAware ADS-B
Sat 05:11:32 AM 37.6210 -90.2330 262° West 463 533 34,100  Level FlightAware ADS-B
Sat 05:12:12 AM 37.6110 -90.3240 262° West 463 533 34,100  Level FlightAware ADS-B
Sat 05:12:52 AM 37.6010 -90.4150 262° West 463 533 34,100  Level FlightAware ADS-B
Sat 05:13:44 AM 37.5467 -90.7781 262° West 460 529 34,100  Level Kansas City Center
Sat 05:14:44 AM 37.5264 -90.9369 261° West 458 527 34,100  Level Kansas City Center
Sat 05:15:45 AM 37.5056 -91.0950 261° West 458 527 34,100  Level Kansas City Center
Sat 05:16:45 AM 37.4853 -91.2547 261° West 460 529 34,100  Level Kansas City Center
Sat 05:17:45 AM 37.4656 -91.4150 261° West 461 531 34,100  Level Kansas City Center
Sat 05:18:46 AM 37.4436 -91.5747 260° West 462 532 34,100  Level Kansas City Center
Sat 05:19:46 AM 37.4217 -91.7344 260° West 461 531 34,100  Level Kansas City Center
Sat 05:20:47 AM 37.4008 -91.8931 261° West 458 527 34,100  Level Kansas City Center
Sat 05:21:47 AM 37.3792 -92.0536 260° West 460 529 34,100  Level Kansas City Center
Sat 05:22:48 AM 37.3581 -92.2128 261° West 460 529 34,100  Level Kansas City Center
Sat 05:23:48 AM 37.3358 -92.3728 260° West 460 529 34,100  Level Kansas City Center
Sat 05:24:49 AM 37.3128 -92.5339 260° West 462 532 34,100  Level Kansas City Center
Sat 05:25:49 AM 37.2897 -92.6925 260° West 461 531 34,100  Level Kansas City Center
Sat 05:26:49 AM 37.2669 -92.8497 260° West 458 527 34,100  Level Kansas City Center
Sat 05:32:52 AM 37.1280 -93.7900 260° West 458 527 34,100  Level FlightAware ADS-B
Sat 05:33:42 AM 37.1070 -93.9320 260° West 459 528 34,100  Level FlightAware ADS-B
Sat 05:34:17 AM 37.0940 -94.0120 259° West 458 527 34,100  Level FlightAware ADS-B
Sat 05:35:32 AM 37.0640 -94.2080 259° West 456 525 34,100  Level FlightAware ADS-B
Sat 05:36:12 AM 37.0460 -94.3190 259° West 455 524 34,100  Level FlightAware ADS-B
Sat 05:36:57 AM 37.0280 -94.4350 259° West 454 522 34,100  Level FlightAware ADS-B
Sat 05:37:37 AM 37.0120 -94.5360 259° West 454 522 34,100  Level FlightAware ADS-B
Sat 05:38:22 AM 36.9930 -94.6560 259° West 454 522 34,100  Level FlightAware ADS-B
Sat 05:39:02 AM 36.9760 -94.7590 258° West 454 522 34,100  Level FlightAware ADS-B
Sat 05:39:47 AM 36.9580 -94.8710 259° West 453 521 34,100  Level FlightAware ADS-B
Sat 05:40:27 AM 36.9410 -94.9760 259° West 453 521 34,100  Level FlightAware ADS-B
Sat 05:41:22 AM 36.9180 -95.1110 258° West 454 522 34,100  Level FlightAware ADS-B
Sat 05:41:57 AM 36.9030 -95.2010 258° West 454 522 34,100  Level FlightAware ADS-B
Sat 05:42:42 AM 36.8850 -95.3080 258° West 454 522 34,100  Level FlightAware ADS-B
Sat 05:43:22 AM 36.8700 -95.3950 258° West 454 522 34,100  Level FlightAware ADS-B
Sat 05:44:07 AM 36.8460 -95.5430 259° West 458 527 34,100  Level FlightAware ADS-B
Sat 05:45:07 AM 36.8200 -95.6990 258° West 459 528 34,100  Level FlightAware ADS-B
Sat 05:45:47 AM 36.8030 -95.7970 258° West 458 527 34,100  Level FlightAware ADS-B
Sat 05:46:32 AM 36.7820 -95.9210 258° West 458 527 34,100  Level FlightAware ADS-B
Sat 05:47:12 AM 36.7640 -96.0260 258° West 456 525 34,100  Level FlightAware ADS-B
Sat 05:47:57 AM 36.7450 -96.1300 257° West 452 520 34,100  Level FlightAware ADS-B
Sat 05:48:37 AM 36.7270 -96.2380 258° West 449 517 34,100  Level FlightAware ADS-B
Sat 05:49:22 AM 36.7080 -96.3450 258° West 447 514 34,100  Level FlightAware ADS-B
Sat 05:50:02 AM 36.6890 -96.4540 258° West 445 512 34,100  Level FlightAware ADS-B
Sat 05:50:47 AM 36.6690 -96.5650 257° West 442 509 34,100  Level FlightAware ADS-B
Sat 05:51:27 AM 36.6510 -96.6640 257° West 440 506 34,100  Level FlightAware ADS-B
Sat 05:52:02 AM 36.6350 -96.7530 257° West 438 504 34,100  Level FlightAware ADS-B
Sat 05:52:47 AM 36.6150 -96.8620 257° West 438 504 34,100  Level FlightAware ADS-B
Sat 05:53:32 AM 36.5960 -96.9670 257° West 437 503 34,100  Level FlightAware ADS-B
Sat 05:54:12 AM 36.5770 -97.0720 257° West 435 501 34,100  Level FlightAware ADS-B
Sat 05:55:12 AM 36.5510 -97.2150 257° West 434 499 34,100  Level FlightAware ADS-B
Sat 05:55:52 AM 36.5330 -97.3140 257° West 433 498 34,100  Level FlightAware ADS-B
Sat 05:56:37 AM 36.5120 -97.4250 257° West 430 495 34,100  Level FlightAware ADS-B
Sat 05:57:17 AM 36.4940 -97.5210 257° West 429 494 34,100  Level FlightAware ADS-B
Sat 05:57:57 AM 36.4760 -97.6190 257° West 428 493 34,100  Level FlightAware ADS-B
Sat 05:58:42 AM 36.4560 -97.7220 256° West 428 493 34,100  Level FlightAware ADS-B
Sat 05:59:22 AM 36.4380 -97.8190 257° West 427 491 34,100  Level FlightAware ADS-B
Sat 06:00:07 AM 36.4170 -97.9280 257° West 427 491 34,100  Level FlightAware ADS-B
Sat 06:00:42 AM 36.4010 -98.0110 257° West 427 491 34,100  Level FlightAware ADS-B
Sat 06:01:22 AM 36.3840 -98.1020 257° West 427 491 34,100  Level FlightAware ADS-B
Sat 06:02:02 AM 36.3640 -98.2040 256° West 427 491 34,100  Level FlightAware ADS-B
Sat 06:02:47 AM 36.3440 -98.3030 256° West 427 491 34,100  Level FlightAware ADS-B
Sat 06:03:37 AM 36.3210 -98.4230 257° West 431 496 34,100  Level FlightAware ADS-B
Sat 06:04:32 AM 36.2960 -98.5480 256° West 432 497 34,100  Level FlightAware ADS-B
Sat 06:05:12 AM 36.2800 -98.6300 256° West 432 497 34,100  Level FlightAware ADS-B
Sat 06:05:52 AM 36.2560 -98.7550 257° West 434 499 34,100  Level FlightAware ADS-B
Sat 06:06:37 AM 36.2360 -98.8560 256° West 434 499 34,100  Level FlightAware ADS-B
Sat 06:07:12 AM 36.2200 -98.9370 256° West 434 499 34,100  Level FlightAware ADS-B
Sat 06:08:02 AM 36.1990 -99.0390 256° West 434 499 34,100  Level FlightAware ADS-B
Sat 06:08:42 AM 36.1820 -99.1210 256° West 434 499 34,100  Level FlightAware ADS-B
Sat 06:09:22 AM 36.1660 -99.2030 256° West 434 499 34,100  Level FlightAware ADS-B
Sat 06:10:02 AM 36.1490 -99.2850 256° West 434 499 34,100  Level FlightAware ADS-B
Sat 06:10:42 AM 36.1330 -99.3670 256° West 434 499 34,100  Level FlightAware ADS-B
Sat 06:11:22 AM 36.1160 -99.4490 256° West 434 499 34,100  Level FlightAware ADS-B
Sat 06:12:12 AM 36.0960 -99.5520 257° West 434 499 34,100  Level FlightAware ADS-B
Sat 06:12:52 AM 36.0790 -99.6340 256° West 434 499 34,100  Level FlightAware ADS-B
Sat 06:13:32 AM 36.0630 -99.7160 256° West 434 499 34,100  Level FlightAware ADS-B
Sat 06:14:12 AM 36.0460 -99.7980 256° West 434 499 34,100  Level FlightAware ADS-B
Sat 06:15:02 AM 36.0250 -99.9000 256° West 434 499 34,100  Level FlightAware ADS-B
Sat 06:15:42 AM 36.0090 -99.9820 256° West 434 499 34,100  Level FlightAware ADS-B
Sat 06:16:22 AM 35.9920 -100.0640 256° West 434 499 34,100  Level FlightAware ADS-B
Sat 06:17:10 AM 35.9239 -100.3600 256° West 430 495 34,100  Level Kansas City Center
Sat 06:18:10 AM 35.8931 -100.5003 255° West 427 491 34,100  Level Kansas City Center
Sat 06:19:10 AM 35.8636 -100.6411 256° West 426 490 34,100  Level Kansas City Center
Sat 06:20:11 AM 35.8325 -100.7817 255° West 427 491 34,100  Level Kansas City Center
Sat 06:21:11 AM 35.8019 -100.9244 255° West 431 496 34,100  Level Kansas City Center
Sat 06:22:11 AM 35.7703 -101.0683 255° West 436 502 34,100  Level Kansas City Center
Sat 06:23:11 AM 35.7383 -101.2111 255° West 436 502 34,100  Level Kansas City Center
Sat 06:24:25 AM 35.7006 -101.3864 255° West 443 510 34,100  Level Albuquerque Center
Sat 06:25:24 AM 35.6619 -101.5614 255° West 446 513 34,100  Level Albuquerque Center
Sat 06:26:25 AM 35.6292 -101.7106 255° West 455 524 34,100  Level Albuquerque Center
Sat 06:27:25 AM 35.5947 -101.8586 254° West 457 526 34,100  Level Albuquerque Center
Sat 06:28:25 AM 35.5600 -102.0061 254° West 456 525 34,100  Level Albuquerque Center
Sat 06:29:25 AM 35.5256 -102.1547 254° West 457 526 34,100  Level Albuquerque Center
Sat 06:30:25 AM 35.4908 -102.3031 254° West 456 525 34,100  Level Albuquerque Center
Sat 06:31:25 AM 35.4569 -102.4503 254° West 453 521 34,100  Level Albuquerque Center
Sat 06:32:26 AM 35.4214 -102.5986 254° West 455 524 34,100  Level Albuquerque Center
Sat 06:33:26 AM 35.3853 -102.7553 254° West 453 521 34,100  Level Albuquerque Center
Sat 06:34:26 AM 35.3500 -102.9047 254° West 454 522 34,100  Level Albuquerque Center
Sat 06:35:26 AM 35.3150 -103.0528 254° West 450 518 34,100  Level Albuquerque Center
Sat 06:36:26 AM 35.2861 -103.1764 254° West 450 518 34,100  Level Albuquerque Center
Sat 06:37:26 AM 35.2497 -103.3250 253° West 450 518 34,100  Level Albuquerque Center
Sat 06:38:27 AM 35.2133 -103.4731 253° West 451 519 34,100  Level Albuquerque Center
Sat 06:39:27 AM 35.1803 -103.6233 255° West 453 521 34,100  Level Albuquerque Center
Sat 06:40:27 AM 35.1744 -103.7794 267° West 452 520 34,100  Level Albuquerque Center
Sat 06:41:27 AM 35.1678 -103.9375 267° West 457 526 34,100  Level Albuquerque Center
Sat 06:42:27 AM 35.1611 -104.0928 267° West 458 527 34,100  Level Albuquerque Center
Sat 06:43:27 AM 35.1536 -104.2472 267° West 457 526 34,100  Level Albuquerque Center
Sat 06:44:27 AM 35.1456 -104.3994 266° West 453 521 34,100  Level Albuquerque Center
Sat 06:45:28 AM 35.1381 -104.5542 267° West 456 525 34,100  Level Albuquerque Center
Sat 06:46:28 AM 35.1306 -104.7239 267° West 452 520 34,100  Level Albuquerque Center
Sat 06:47:28 AM 35.1264 -104.8772 268° West 449 517 34,100  Level Albuquerque Center
Sat 06:48:28 AM 35.1228 -105.0061 268° West 451 519 34,100 -250 Level Albuquerque Center
Sat 06:49:28 AM 35.1172 -105.1567 267° West 443 510 33,600 -942 Descending Albuquerque Center
Sat 06:50:29 AM 35.1111 -105.3069 267° West 440 506 32,200 -2,391 Descending Albuquerque Center
Sat 06:56:17 AM 35.0450 -106.1890 267° West 381 438 17,300 -2,718 Descending FlightAware ADS-B
Sat 06:57:02 AM 35.0210 -106.2830 253° West 352 405 14,400 -3,882 Descending FlightAware ADS-B
Sat 06:57:42 AM 35.0000 -106.3560 251° West 340 391 11,800 -3,106 Descending FlightAware ADS-B
Sat 06:58:27 AM 34.9750 -106.4320 248° West 306 352 10,000 -1,543 Descending FlightAware ADS-B
Sat 06:58:52 AM 34.9630 -106.4680 248° West 269 310 10,000  Level FlightAware ADS-B
Sat 06:59:22 AM 34.9490 -106.5110 248° West 259 298 10,000 -300 Level FlightAware ADS-B
Sat 06:59:52 AM 34.9310 -106.5490 240° Southwest 254 292 9,700 -655 Descending FlightAware ADS-B
Sat 07:00:17 AM 34.9160 -106.5780 238° Southwest 241 277 9,400 -738 Descending FlightAware ADS-B
Sat 07:00:57 AM 34.8950 -106.6190 238° Southwest 215 247 8,900 -764 Descending FlightAware ADS-B
Sat 07:01:12 AM 34.8860 -106.6350 236° Southwest 207 238 8,700 -436 Descending FlightAware ADS-B
Sat 07:01:52 AM 34.8670 -106.6720 238° Southwest 203 234 8,500 -171 Descending FlightAware ADS-B
Sat 07:02:22 AM 34.8540 -106.6960 237° Southwest 203 234 8,500 -1,650 Level FlightAware ADS-B
Sat 07:02:32 AM 34.9000 -106.7040 352° North 170 196 7,400 -2,200 Descending FlightAware ADS-B
Sat 07:02:52 AM 34.9120 -106.7170 318° Northwest 170 196 7,400  Level FlightAware ADS-B
Sat 07:03:17 AM 34.9270 -106.7260 334° Northwest 172 198 7,400  Level FlightAware ADS-B
Sat 07:03:42 AM 34.9460 -106.7310 348° North 172 198 7,400 -545 Level FlightAware ADS-B
Sat 07:04:12 AM 34.9610 -106.7040 56° Northeast 155 178 6,900 -873 Descending FlightAware ADS-B
Sat 07:04:37 AM 34.9730 -106.6900 44° Northeast 155 178 6,600 -360 Descending FlightAware ADS-B
Sat 07:05:02 AM 34.9860 -106.6740 45° Northeast 155 178 6,600 -778 Level FlightAware ADS-B
Sat 07:05:31 AM 34.9997 -106.6564 45° Northeast 161 185 5,900 -876 Descending Albuquerque Center
Sat 07:06:31 AM 35.0306 -106.6206 44° Northeast 157 181 5,300 -600 Descending Albuquerque Center
Sat 07:08:00 AM 35.0333 -106.6000 90° East  Level FlightAware Approximate

Login

Don't have an account? Register now (free) for customized features, flight alerts, and more!